This is the latest recevied weather packets stored in our database for station/object Waldburg. If no packets are shown the sender has not sent any weather packets the latest 1 day(s).
| Time | Temp. | Humidity | Pressure | Rain* | Wind** | Luminosity | Snow |
|---|---|---|---|---|---|---|---|
| 1777986130 | 16.67° C | 71% | 1006 hPa | 0 mm | 3.13 m/s, 284° | - | - |
| 1777984330 | 16.11° C | 74% | 1006.2 hPa | 0 mm | 1.79 m/s, 190° | - | - |
| 1777982530 | 14.44° C | 79% | 1006.2 hPa | 0 mm | 2.24 m/s, 180° | - | - |
| 1777980730 | 13.33° C | 81% | 1006.3 hPa | 0 mm | 2.24 m/s, 114° | - | - |
| 1777978931 | 13.33° C | 82% | 1006.6 hPa | 0 mm | 1.79 m/s, 266° | - | - |
| 1777977131 | 13.33° C | 80% | 1006.5 hPa | 0 mm | 1.79 m/s, 266° | - | - |
| 1777975332 | 13.33° C | 80% | 1006.5 hPa | 0 mm | 1.79 m/s, 266° | - | - |
| 1777973532 | 13.33° C | 81% | 1006.5 hPa | 0 mm | 1.79 m/s, 266° | - | - |
| 1777971732 | 14.44° C | 78% | 1006.5 hPa | 0 mm | 1.79 m/s, 266° | - | - |
| 1777969931 | 15° C | 76% | 1006.7 hPa | 0 mm | 1.79 m/s, 266° | - | - |
| 1777968131 | 15° C | 75% | 1006.8 hPa | 0 mm | 1.79 m/s, 266° | - | - |
| 1777966330 | 12.78° C | 86% | 1007 hPa | 0 mm | 1.79 m/s, 266° | - | - |
| 1777964532 | 12.22° C | 88% | 1007 hPa | 0 mm | 0.89 m/s, 209° | - | - |
| 1777962731 | 11.67° C | 93% | 1007.2 hPa | 0 mm | 1.34 m/s, 158° | - | - |
| 1777960932 | 10° C | 96% | 1007.1 hPa | 0 mm | 0.89 m/s, 111° | - | - |
| 1777959131 | 8.89° C | 95% | 1007.2 hPa | 0 mm | 1.79 m/s, 98° | - | - |
| 1777957331 | 8.33° C | 95% | 1007.2 hPa | 0 mm | 1.79 m/s, 40° | - | - |
| 1777955531 | 8.33° C | 95% | 1007.2 hPa | 0 mm | 4.02 m/s, 59° | - | - |
| 1777953731 | 7.78° C | 94% | 1007.3 hPa | 0 mm | 3.58 m/s, 69° | - | - |
| 1777951931 | 7.78° C | 94% | 1007.5 hPa | 0 mm | 2.68 m/s, 53° | - | - |
| 1777950133 | 8.33° C | 94% | 1007.7 hPa | 0 mm | 1.34 m/s, 44° | - | - |
| 1777948331 | 8.33° C | 92% | 1008 hPa | 0 mm | 0.89 m/s, 69° | - | - |
| 1777946531 | 8.33° C | 91% | 1008.1 hPa | 0 mm | 2.24 m/s, 53° | - | - |
* Rain since midnight (hover to see other rain measurements)
** Current wind speed in m/s (hover to see current wind gust speed)